Time;durP1;ratioP1;P1;durP2;ratioP2;P2;SDS_P1;SDS_P2;PMS_P1;PMS_P2;Temp;Humidity;BMP_temperature;BMP_pressure;BME280_temperature;BME280_humidity;BME280_pressure;Samples;Min_cycle;Max_cycle;Signal;HPM_P1;HPM_P2
2022/12/10 00:01:49;;;;;;;27.77;16.60;;;-0.20;99.90;;;;;;4975205;28;20223;-81
2022/12/10 00:04:15;;;;;;;27.80;17.30;;;-0.20;1.00;;;;;;4978707;28;20745;-79
2022/12/10 00:06:42;;;;;;;29.13;17.33;;;-0.20;1.00;;;;;;4977711;28;20200;-80
2022/12/10 00:09:15;;;;;;;31.03;17.17;;;-0.20;99.90;;;;;;4992013;28;20215;-81
2022/12/10 00:11:41;;;;;;;28.33;17.03;;;-0.30;99.90;;;;;;4992232;28;20219;-80
2022/12/10 00:14:07;;;;;;;30.83;16.97;;;-0.20;1.00;;;;;;4975990;28;20208;-81
2022/12/10 00:16:33;;;;;;;29.57;16.97;;;-0.20;99.90;;;;;;4975851;28;20635;-82
2022/12/10 00:18:59;;;;;;;33.23;17.43;;;-0.20;99.90;;;;;;4978674;28;20238;-80
2022/12/10 00:21:30;;;;;;;30.50;16.60;;;-0.30;99.90;;;;;;4975484;28;20246;-80
2022/12/10 00:23:56;;;;;;;28.53;16.43;;;-0.20;1.00;;;;;;4976074;28;20706;-80
2022/12/10 00:26:28;;;;;;;28.67;16.47;;;-0.20;99.90;;;;;;4975979;28;20188;-80
2022/12/10 00:28:55;;;;;;;32.10;17.20;;;-0.30;99.90;;;;;;4978018;28;20195;-79
2022/12/10 00:31:29;;;;;;;29.33;16.27;;;-0.30;99.90;;;;;;4977424;28;20208;-80
2022/12/10 00:33:58;;;;;;;28.53;16.90;;;-0.20;99.90;;;;;;4975840;28;20286;-82
2022/12/10 00:36:30;;;;;;;27.17;16.27;;;-0.30;99.90;;;;;;4974618;28;20209;-79
2022/12/10 00:38:56;;;;;;;30.00;16.17;;;-0.30;99.90;;;;;;4975915;28;20188;-79
2022/12/10 00:41:22;;;;;;;28.83;15.63;;;-0.30;99.90;;;;;;4975092;28;20214;-80
2022/12/10 00:43:48;;;;;;;30.57;16.47;;;-0.40;99.90;;;;;;4976267;28;20264;-80
2022/12/10 00:46:16;;;;;;;29.37;15.77;;;-0.40;1.00;;;;;;4977494;28;20180;-79
2022/12/10 00:48:43;;;;;;;28.67;15.57;;;-0.40;1.00;;;;;;4976090;28;20184;-79
2022/12/10 00:51:13;;;;;;;25.93;14.63;;;-0.30;1.00;;;;;;4976576;28;20248;-79
2022/12/10 00:53:40;;;;;;;26.13;14.07;;;-0.30;99.90;;;;;;4984169;28;20219;-79
2022/12/10 00:56:07;;;;;;;25.13;15.07;;;-0.40;99.90;;;;;;4977511;28;20212;-80
2022/12/10 00:58:34;;;;;;;27.40;14.67;;;-0.50;1.00;;;;;;4975501;28;20689;-79
2022/12/10 01:01:10;;;;;;;26.77;15.20;;;-0.40;1.00;;;;;;4977599;28;20180;-80
2022/12/10 01:03:36;;;;;;;24.10;13.70;;;-0.40;1.00;;;;;;4975654;28;20282;-81
2022/12/10 01:06:35;;;;;;;25.00;14.17;;;-0.40;1.00;;;;;;4977087;28;20671;-80
2022/12/10 01:09:04;;;;;;;23.03;13.63;;;-0.50;1.00;;;;;;4990625;28;20200;-80
2022/12/10 01:11:32;;;;;;;25.47;14.50;;;-0.40;1.00;;;;;;4976440;28;20193;-79
2022/12/10 01:13:58;;;;;;;22.73;13.07;;;-0.50;1.00;;;;;;4976942;28;20215;-80
2022/12/10 01:16:24;;;;;;;25.53;14.50;;;-0.40;99.90;;;;;;4992774;28;20303;-80
2022/12/10 01:18:53;;;;;;;25.13;14.63;;;-0.50;99.90;;;;;;4977397;28;20188;-79
2022/12/10 01:21:19;;;;;;;22.70;13.10;;;-0.50;99.90;;;;;;4975232;28;20652;-79
2022/12/10 01:23:47;;;;;;;22.60;13.10;;;-0.50;99.90;;;;;;4975814;28;20264;-79
2022/12/10 01:26:15;;;;;;;24.80;14.60;;;-0.50;99.90;;;;;;4976947;28;20231;-80
2022/12/10 01:28:42;;;;;;;22.37;13.27;;;-0.50;99.90;;;;;;4981648;28;20197;-80
2022/12/10 01:31:13;;;;;;;24.40;14.70;;;-0.60;98.00;;;;;;4980338;28;20217;-79
2022/12/10 01:33:40;;;;;;;26.13;15.60;;;-0.60;99.90;;;;;;4987238;28;20679;-80
2022/12/10 01:36:15;;;;;;;26.37;14.97;;;-0.60;99.90;;;;;;4979204;28;20204;-79
2022/12/10 01:38:41;;;;;;;28.93;15.93;;;-0.60;99.90;;;;;;4980727;28;20264;-80
2022/12/10 01:41:12;;;;;;;25.63;15.13;;;-0.50;99.90;;;;;;4980619;28;20714;-80
2022/12/10 01:43:50;;;;;;;26.80;15.70;;;-0.50;99.90;;;;;;4980409;28;20224;-80
2022/12/10 01:46:16;;;;;;;24.53;14.73;;;-0.60;99.90;;;;;;4981805;28;20185;-80
2022/12/10 01:48:42;;;;;;;25.37;15.10;;;-0.50;99.90;;;;;;4981055;28;20202;-80
2022/12/10 01:51:08;;;;;;;26.73;15.87;;;-0.60;99.90;;;;;;4981280;28;20613;-79
2022/12/10 01:53:34;;;;;;;25.97;14.70;;;-0.60;99.90;;;;;;4980946;28;20267;-80
2022/12/10 01:56:00;;;;;;;27.43;16.10;;;-0.60;99.90;;;;;;4977497;28;20212;-80
2022/12/10 01:58:25;;;;;;;27.67;16.13;;;-0.60;1.00;;;;;;4982338;28;20540;-81
2022/12/10 02:00:56;;;;;;;30.73;17.27;;;-0.60;99.90;;;;;;4981326;28;20674;-80
2022/12/10 02:03:53;;;;;;;31.17;17.77;;;-0.70;99.90;;;;;;4979818;28;20204;-80
2022/12/10 02:06:32;;;;;;;33.20;17.90;;;-0.70;99.90;;;;;;4976927;28;20284;-80
2022/12/10 02:09:09;;;;;;;32.17;17.47;;;-0.70;1.00;;;;;;4979983;28;20193;-80
2022/12/10 02:11:46;;;;;;;32.60;18.03;;;-0.70;1.00;;;;;;4980863;28;20193;-80
2022/12/10 02:14:37;;;;;;;32.97;17.63;;;-0.60;1.00;;;;;;4978528;28;20737;-80
2022/12/10 02:17:11;;;;;;;31.37;17.87;;;-0.50;90.30;;;;;;4979160;28;20204;-80
2022/12/10 02:20:10;;;;;;;32.33;18.70;;;-0.50;1.00;;;;;;4979117;28;20203;-80
2022/12/10 02:22:45;;;;;;;32.83;18.57;;;-0.50;99.90;;;;;;4993933;28;20295;-80
2022/12/10 02:25:13;;;;;;;28.33;17.00;;;-0.50;99.90;;;;;;4979165;28;20705;-80
2022/12/10 02:28:02;;;;;;;32.33;17.53;;;-0.50;99.90;;;;;;4978891;28;20188;-80
2022/12/10 02:30:31;;;;;;;30.27;17.93;;;-0.50;99.90;;;;;;4979006;28;20212;-81
2022/12/10 02:32:58;;;;;;;33.53;18.13;;;-0.60;99.90;;;;;;4979363;28;20224;-79
2022/12/10 02:35:27;;;;;;;32.97;17.77;;;-0.60;1.00;;;;;;4978789;28;20208;-81
2022/12/10 02:37:56;;;;;;;32.03;18.30;;;-0.50;1.00;;;;;;4994373;28;20220;-81
2022/12/10 02:40:32;;;;;;;32.90;17.93;;;-0.50;84.50;;;;;;4986787;28;20251;-80
2022/12/10 02:42:58;;;;;;;35.90;18.93;;;-0.50;99.90;;;;;;4979654;28;20216;-78
2022/12/10 02:45:27;;;;;;;32.07;18.13;;;0.40;41.20;;;;;;4995315;28;20653;-81
2022/12/10 02:47:56;;;;;;;33.00;19.10;;;-0.50;21.40;;;;;;4980744;28;20231;-79
2022/12/10 02:50:23;;;;;;;32.07;17.97;;;-0.50;99.90;;;;;;4995197;28;20177;-82
2022/12/10 02:52:49;;;;;;;31.10;17.93;;;-0.40;1.00;;;;;;4978809;28;20209;-81
2022/12/10 02:55:15;;;;;;;33.57;18.63;;;-0.50;99.90;;;;;;4978812;28;20264;-80
2022/12/10 02:58:08;;;;;;;31.97;17.93;;;-0.50;99.90;;;;;;4980135;28;20215;-79
2022/12/10 03:00:51;;;;;;;29.97;17.30;;;-0.50;99.90;;;;;;4980460;28;20236;-80
2022/12/10 03:03:49;;;;;;;33.10;18.13;;;-0.50;99.90;;;;;;4980009;28;20216;-80
2022/12/10 03:06:28;;;;;;;34.23;19.03;;;-0.50;99.90;;;;;;4975453;28;20574;-80
2022/12/10 03:09:01;;;;;;;33.27;17.43;;;-0.60;99.90;;;;;;4979058;28;20215;-80
2022/12/10 03:11:28;;;;;;;35.43;19.23;;;-0.50;99.90;;;;;;4978544;28;20193;-80
2022/12/10 03:14:08;;;;;;;34.73;19.13;;;-0.60;99.90;;;;;;4976996;28;20212;-80
2022/12/10 03:16:38;;;;;;;34.57;18.87;;;-0.50;99.90;;;;;;4978657;28;20234;-81
2022/12/10 03:19:13;;;;;;;35.67;19.43;;;-0.50;99.90;;;;;;4977751;28;20195;-80
2022/12/10 03:21:40;;;;;;;35.87;20.23;;;-0.50;1.00;;;;;;4977125;28;20187;-80
2022/12/10 03:24:08;;;;;;;33.53;19.83;;;-0.40;1.00;;;;;;4977322;28;20358;-79
2022/12/10 03:26:35;;;;;;;37.03;20.23;;;-0.50;1.00;;;;;;4985426;28;20550;-79
2022/12/10 03:29:06;;;;;;;34.20;19.30;;;-0.60;99.90;;;;;;4992839;28;20692;-79
2022/12/10 03:31:34;;;;;;;35.63;19.93;;;-0.50;1.00;;;;;;4985700;28;20193;-80
2022/12/10 03:34:02;;;;;;;34.90;18.67;;;-0.50;1.00;;;;;;4979503;28;20232;-80
2022/12/10 03:36:29;;;;;;;37.43;20.97;;;0.20;99.90;;;;;;4978746;28;20208;-79
2022/12/10 03:38:56;;;;;;;34.77;19.97;;;-0.60;99.90;;;;;;4977205;28;20194;-79
2022/12/10 03:41:22;;;;;;;38.57;20.20;;;-0.60;99.90;;;;;;4979258;28;20180;-81
2022/12/10 03:43:56;;;;;;;35.60;19.00;;;-0.60;1.00;;;;;;4978613;28;20205;-81
2022/12/10 03:46:23;;;;;;;35.97;19.83;;;-0.60;1.00;;;;;;4976507;28;20192;-79
2022/12/10 03:48:50;;;;;;;36.87;19.57;;;-0.50;1.00;;;;;;4979431;28;20193;-79
2022/12/10 03:51:15;;;;;;;36.43;19.80;;;-0.60;1.00;;;;;;4994565;28;21167;-80
2022/12/10 03:53:41;;;;;;;37.77;20.03;;;-0.60;1.00;;;;;;4976655;28;20289;-79
2022/12/10 03:56:07;;;;;;;34.97;18.80;;;-0.50;99.90;;;;;;4978154;28;20854;-80
2022/12/10 03:58:33;;;;;;;35.77;20.40;;;-0.50;99.90;;;;;;4977750;28;20673;-80
2022/12/10 04:00:58;;;;;;;36.70;19.47;;;-0.50;1.00;;;;;;4978691;28;20188;-79
2022/12/10 04:03:24;;;;;;;36.33;19.93;;;-0.50;1.00;;;;;;4965697;28;20704;-79
2022/12/10 04:05:50;;;;;;;35.40;19.50;;;0.00;1.00;;;;;;4979358;28;20196;-79
2022/12/10 04:08:15;;;;;;;36.80;19.57;;;-0.50;1.00;;;;;;4979807;28;20216;-80
2022/12/10 04:10:41;;;;;;;32.77;18.60;;;-0.40;1.00;;;;;;4981358;28;20185;-79
2022/12/10 04:18:35;;;;;;;33.63;18.53;;;-0.40;1.00;;;;;;4978330;28;20187;-79
2022/12/10 04:27:10;;;;;;;32.17;18.50;;;-0.10;99.90;;;;;;4976743;28;20284;-80
2022/12/10 04:29:22;;;;;;;33.40;18.20;;;-0.50;99.90;;;;;;4976680;28;20283;-80
2022/12/10 04:31:47;;;;;;;31.67;17.60;;;-0.40;99.90;;;;;;4978060;28;20667;-79
2022/12/10 04:34:13;;;;;;;36.77;19.70;;;-0.40;99.90;;;;;;4976519;28;20235;-79
2022/12/10 04:36:39;;;;;;;35.87;20.17;;;-0.50;1.00;;;;;;4992909;28;20246;-79
2022/12/10 04:39:04;;;;;;;33.03;18.67;;;-0.40;1.00;;;;;;4975892;28;20205;-80
2022/12/10 04:41:30;;;;;;;33.47;19.07;;;-0.40;99.90;;;;;;4974786;28;20184;-79
2022/12/10 04:43:55;;;;;;;35.83;19.40;;;-0.40;99.90;;;;;;4976384;28;21126;-79
2022/12/10 04:46:21;;;;;;;35.63;18.40;;;-0.40;99.90;;;;;;4977033;28;20231;-79
2022/12/10 04:48:47;;;;;;;32.83;17.77;;;-0.40;99.90;;;;;;4977232;28;20211;-80
2022/12/10 04:51:12;;;;;;;35.77;19.57;;;-0.40;99.90;;;;;;4977987;28;20184;-79
2022/12/10 04:53:38;;;;;;;36.53;20.07;;;-0.50;99.90;;;;;;4979541;28;21099;-80
2022/12/10 04:56:05;;;;;;;33.77;18.97;;;-0.50;99.90;;;;;;4976692;28;20196;-80
2022/12/10 04:58:32;;;;;;;39.27;20.53;;;-0.50;99.90;;;;;;4975924;28;20176;-79
2022/12/10 05:01:05;;;;;;;36.70;19.20;;;-0.40;99.90;;;;;;4978992;28;20207;-80
2022/12/10 05:03:31;;;;;;;40.70;20.80;;;-0.30;44.70;;;;;;4997958;28;20200;-80
2022/12/10 05:06:01;;;;;;;39.37;20.40;;;-0.30;1.00;;;;;;4980602;28;20207;-80
2022/12/10 05:08:26;;;;;;;41.10;21.73;;;-0.30;14.50;;;;;;4978729;28;20195;-80
2022/12/10 05:10:52;;;;;;;39.50;21.57;;;-0.40;99.90;;;;;;4981447;28;20570;-80
2022/12/10 05:13:17;;;;;;;42.57;21.13;;;-0.40;99.90;;;;;;4981301;28;20299;-79
2022/12/10 05:15:43;;;;;;;38.63;21.17;;;-0.40;99.90;;;;;;4979417;28;20207;-79
2022/12/10 05:18:08;;;;;;;40.67;22.03;;;-0.40;98.80;;;;;;4980962;28;20275;-79
2022/12/10 05:20:34;;;;;;;40.87;22.37;;;-0.40;99.90;;;;;;4981018;28;20189;-80
2022/12/10 05:25:52;;;;;;;39.63;21.77;;;-0.50;99.90;;;;;;4980818;28;20203;-79
2022/12/10 05:28:19;;;;;;;41.03;20.87;;;-0.40;99.90;;;;;;4979757;28;20565;-80
2022/12/10 05:30:45;;;;;;;40.73;21.00;;;-0.50;99.90;;;;;;4980053;28;20963;-80
2022/12/10 05:33:10;;;;;;;40.67;21.23;;;-0.50;99.90;;;;;;4977707;28;20221;-80
2022/12/10 05:35:36;;;;;;;36.07;19.77;;;-0.50;99.90;;;;;;4982042;28;20264;-79
2022/12/10 05:38:02;;;;;;;41.43;21.37;;;-0.40;99.90;;;;;;4980870;28;20193;-79
2022/12/10 05:40:27;;;;;;;41.07;22.27;;;-0.50;99.90;;;;;;4980754;28;20188;-79
2022/12/10 05:42:53;;;;;;;36.57;21.10;;;-0.50;1.00;;;;;;4980351;28;20205;-80
2022/12/10 05:45:18;;;;;;;40.77;22.53;;;-0.50;1.00;;;;;;4982398;28;21280;-79
2022/12/10 05:47:44;;;;;;;38.83;21.17;;;-0.50;79.70;;;;;;4980443;28;20200;-79
2022/12/10 05:50:09;;;;;;;37.57;19.67;;;-0.50;74.80;;;;;;4980452;28;20219;-79
2022/12/10 05:52:35;;;;;;;34.90;19.97;;;-0.50;2.50;;;;;;4980287;28;20201;-80
2022/12/10 05:55:01;;;;;;;41.47;21.13;;;-0.50;1.00;;;;;;4979290;28;20268;-80
2022/12/10 05:57:26;;;;;;;34.63;18.93;;;-0.50;1.00;;;;;;4979006;28;20208;-79
2022/12/10 05:59:52;;;;;;;38.80;20.33;;;-0.40;1.00;;;;;;4978831;28;20206;-80
2022/12/10 06:02:17;;;;;;;35.63;20.30;;;-0.40;1.00;;;;;;4980055;28;20211;-80
2022/12/10 06:04:44;;;;;;;39.37;20.87;;;0.30;1.00;;;;;;4981482;28;20184;-79
2022/12/10 06:07:09;;;;;;;41.77;22.77;;;-0.60;1.00;;;;;;4983684;28;20200;-79
2022/12/10 06:09:35;;;;;;;43.17;22.73;;;-0.50;1.00;;;;;;4980969;28;20270;-79
2022/12/10 06:12:00;;;;;;;35.93;20.90;;;-0.50;1.00;;;;;;4978514;28;20213;-79
2022/12/10 06:14:26;;;;;;;41.00;21.10;;;-0.50;1.00;;;;;;4978427;28;20188;-79
2022/12/10 06:16:51;;;;;;;39.70;22.20;;;-0.50;1.00;;;;;;4981168;28;20243;-79
2022/12/10 06:19:17;;;;;;;43.23;23.50;;;-0.50;1.00;;;;;;4979627;28;20181;-79
2022/12/10 06:21:42;;;;;;;40.40;21.33;;;-0.50;1.00;;;;;;4980774;28;20271;-79
2022/12/10 06:24:08;;;;;;;46.43;23.57;;;-0.50;1.00;;;;;;4982241;28;20667;-79
2022/12/10 06:26:34;;;;;;;46.37;23.60;;;-0.50;1.00;;;;;;4978970;28;20195;-79
2022/12/10 06:29:00;;;;;;;49.57;25.93;;;-0.50;1.00;;;;;;4980493;28;20193;-79
2022/12/10 06:31:25;;;;;;;44.00;23.93;;;-0.50;1.00;;;;;;4980220;28;20192;-79
2022/12/10 06:33:54;;;;;;;45.40;23.10;;;-0.50;1.00;;;;;;4980875;28;20224;-79
2022/12/10 06:36:20;;;;;;;46.47;22.63;;;-0.50;1.00;;;;;;4980240;28;20205;-79
2022/12/10 06:38:46;;;;;;;44.43;22.40;;;-0.60;1.00;;;;;;4977767;28;20539;-79
2022/12/10 06:41:17;;;;;;;47.07;23.57;;;-0.50;1.00;;;;;;4981607;28;20192;-81
2022/12/10 06:43:43;;;;;;;45.60;23.30;;;-0.40;1.00;;;;;;4980075;28;20197;-79
2022/12/10 06:46:12;;;;;;;46.77;23.00;;;-0.50;1.00;;;;;;4980453;28;20251;-79
2022/12/10 06:48:38;;;;;;;44.83;23.23;;;-0.50;1.00;;;;;;4995539;28;20722;-80
2022/12/10 06:51:05;;;;;;;46.37;23.20;;;-0.60;1.00;;;;;;4981543;28;20211;-79
2022/12/10 06:53:35;;;;;;;48.57;23.63;;;-0.50;1.00;;;;;;4976344;28;20875;-79
2022/12/10 06:56:02;;;;;;;49.43;24.17;;;-0.50;1.00;;;;;;4980582;28;20219;-79
2022/12/10 06:58:29;;;;;;;43.63;22.43;;;-0.50;1.00;;;;;;4981935;28;20180;-79
2022/12/10 07:01:01;;;;;;;49.53;24.50;;;-0.50;1.00;;;;;;4981916;28;20180;-78
2022/12/10 07:03:27;;;;;;;51.23;25.53;;;-0.60;1.00;;;;;;4981228;28;20219;-80
2022/12/10 07:05:56;;;;;;;58.13;24.80;;;-0.60;1.00;;;;;;4981687;28;20185;-79
2022/12/10 07:08:23;;;;;;;51.30;24.17;;;-0.50;1.00;;;;;;4983105;28;20188;-78
2022/12/10 07:10:48;;;;;;;55.00;25.13;;;-0.60;50.10;;;;;;4981440;28;20405;-78
2022/12/10 07:13:14;;;;;;;56.10;24.53;;;-0.60;99.90;;;;;;4983143;28;20274;-80
2022/12/10 07:15:40;;;;;;;45.53;22.90;;;-0.50;9.60;;;;;;4986136;28;20212;-78
2022/12/10 07:18:05;;;;;;;51.63;24.67;;;-0.50;1.00;;;;;;4980433;28;20180;-78
2022/12/10 07:20:31;;;;;;;49.73;22.93;;;-0.60;1.00;;;;;;4981735;28;20262;-80
2022/12/10 07:22:56;;;;;;;47.70;22.83;;;-0.60;1.00;;;;;;4979035;28;20207;-79
2022/12/10 07:25:22;;;;;;;43.17;22.67;;;-0.60;1.00;;;;;;4980675;28;20191;-78
2022/12/10 07:27:47;;;;;;;48.17;22.47;;;-0.60;1.00;;;;;;4980617;28;20215;-77
2022/12/10 07:30:13;;;;;;;47.83;22.97;;;-0.50;1.00;;;;;;4979810;28;20635;-81
2022/12/10 07:32:39;;;;;;;48.77;24.53;;;-0.50;1.00;;;;;;4980920;28;20214;-80
2022/12/10 07:35:05;;;;;;;50.27;23.77;;;-0.60;1.00;;;;;;4981172;28;20188;-78
2022/12/10 07:37:30;;;;;;;46.73;24.57;;;-0.60;1.00;;;;;;4986311;28;20216;-78
2022/12/10 07:39:56;;;;;;;90.73;52.70;;;-0.60;1.00;;;;;;4978066;28;20219;-80
2022/12/10 07:42:21;;;;;;;56.93;29.10;;;-0.70;1.00;;;;;;4978437;28;20211;-79
2022/12/10 07:44:48;;;;;;;45.93;23.23;;;-0.70;1.00;;;;;;4974684;28;20181;-79
2022/12/10 07:47:14;;;;;;;53.60;27.30;;;-0.70;1.00;;;;;;4966540;28;20453;-79
2022/12/10 07:49:39;;;;;;;48.67;26.00;;;-0.80;1.00;;;;;;4971472;28;20199;-79
2022/12/10 07:52:05;;;;;;;75.70;53.53;;;-0.80;1.00;;;;;;4977065;28;20188;-78
2022/12/10 07:54:30;;;;;;;45.13;22.63;;;-0.80;1.00;;;;;;4978665;28;20611;-79
2022/12/10 07:56:56;;;;;;;78.17;56.97;;;-0.90;1.00;;;;;;4980384;28;20223;-80
2022/12/10 07:59:22;;;;;;;51.30;25.23;;;-0.80;1.00;;;;;;4979004;28;20268;-80
2022/12/10 08:01:49;;;;;;;50.90;25.27;;;-0.80;1.00;;;;;;4976345;28;20276;-80
2022/12/10 08:04:14;;;;;;;48.43;26.43;;;-0.80;1.00;;;;;;4978079;28;20638;-80
2022/12/10 08:06:40;;;;;;;51.33;29.33;;;-0.80;1.00;;;;;;4980014;28;20220;-80
2022/12/10 08:09:06;;;;;;;51.07;32.83;;;-0.80;1.00;;;;;;4985396;28;20231;-79
2022/12/10 08:11:32;;;;;;;38.93;21.73;;;-0.80;1.00;;;;;;4977267;28;20243;-80
2022/12/10 08:13:58;;;;;;;41.70;22.70;;;-0.70;1.00;;;;;;4977150;28;20220;-79
2022/12/10 08:16:26;;;;;;;46.07;24.63;;;-0.70;1.00;;;;;;4978019;28;20212;-80
2022/12/10 08:18:52;;;;;;;39.83;20.87;;;-0.70;1.00;;;;;;4980584;28;20263;-79
2022/12/10 08:21:20;;;;;;;39.97;20.63;;;-0.60;1.00;;;;;;4977438;28;20746;-78
2022/12/10 08:23:45;;;;;;;43.73;21.50;;;-0.50;1.00;;;;;;4978755;28;20211;-79
2022/12/10 08:26:23;;;;;;;43.60;22.50;;;-0.50;99.90;;;;;;4977463;28;20427;-79
2022/12/10 08:28:49;;;;;;;37.20;19.33;;;-0.50;99.90;;;;;;4974899;28;20191;-80
2022/12/10 08:31:18;;;;;;;38.67;20.10;;;-0.50;99.90;;;;;;4974406;28;20203;-80
2022/12/10 08:33:44;;;;;;;46.33;23.37;;;-0.50;99.90;;;;;;4976090;28;20500;-78
2022/12/10 08:36:12;;;;;;;42.33;20.97;;;-0.60;99.90;;;;;;4972651;28;20219;-78
2022/12/10 08:38:39;;;;;;;45.27;22.77;;;-0.60;1.00;;;;;;4974747;28;20180;-79
2022/12/10 08:41:14;;;;;;;49.33;25.53;;;-0.50;1.00;;;;;;4983429;28;20581;-77
2022/12/10 08:43:41;;;;;;;43.53;21.63;;;-0.50;99.90;;;;;;4984301;28;20204;-82
2022/12/10 08:46:07;;;;;;;39.90;19.47;;;-0.50;99.90;;;;;;4981779;28;20198;-79
2022/12/10 08:48:35;;;;;;;37.80;19.70;;;-0.60;99.90;;;;;;4978391;28;20184;-78
2022/12/10 08:51:01;;;;;;;39.17;20.87;;;-0.60;99.90;;;;;;4986279;28;20575;-79
2022/12/10 08:53:26;;;;;;;40.60;19.93;;;-0.50;99.90;;;;;;4977877;28;20205;-80
2022/12/10 08:55:53;;;;;;;38.57;19.87;;;1.10;99.90;;;;;;4974649;28;20181;-78
2022/12/10 08:58:20;;;;;;;41.80;20.90;;;-0.30;99.90;;;;;;4976407;28;20624;-79
2022/12/10 09:00:47;;;;;;;45.30;26.20;;;-0.50;99.90;;;;;;4984000;28;20252;-80
2022/12/10 09:03:13;;;;;;;54.70;34.67;;;-1.50;99.90;;;;;;4979066;28;20211;-79
2022/12/10 09:05:39;;;;;;;57.87;43.40;;;-0.60;99.90;;;;;;4980309;28;20301;-81
2022/12/10 09:08:04;;;;;;;44.43;26.73;;;-0.60;99.90;;;;;;4980446;28;20326;-80
2022/12/10 09:10:30;;;;;;;38.30;21.33;;;-0.70;99.90;;;;;;4982139;28;20279;-79
2022/12/10 09:12:56;;;;;;;40.67;21.50;;;-0.50;99.90;;;;;;4980124;28;20303;-79
2022/12/10 09:15:22;;;;;;;46.37;26.97;;;-0.50;99.90;;;;;;4980849;28;20687;-80
2022/12/10 09:17:47;;;;;;;56.70;38.83;;;-0.50;99.90;;;;;;4978469;28;20208;-80
2022/12/10 09:20:13;;;;;;;43.37;23.27;;;-0.50;99.90;;;;;;4979547;28;20203;-80
2022/12/10 09:22:39;;;;;;;56.03;38.27;;;-0.50;99.90;;;;;;4979345;28;20256;-80
2022/12/10 09:25:08;;;;;;;47.73;30.57;;;-0.50;99.90;;;;;;4979161;28;20192;-80
2022/12/10 09:27:34;;;;;;;41.13;20.97;;;-0.50;99.90;;;;;;4995900;28;20292;-79
2022/12/10 09:29:59;;;;;;;38.17;20.47;;;-0.40;99.90;;;;;;4982557;28;21168;-79
2022/12/10 09:32:25;;;;;;;42.53;21.00;;;-0.30;99.90;;;;;;4978213;28;20219;-82
2022/12/10 09:34:51;;;;;;;38.13;19.53;;;-0.40;99.90;;;;;;4978767;28;20224;-80
2022/12/10 09:37:17;;;;;;;38.30;19.00;;;-0.30;99.90;;;;;;4994761;28;20213;-79
2022/12/10 09:39:43;;;;;;;38.13;19.20;;;-0.30;99.90;;;;;;4994513;28;20259;-79
2022/12/10 09:42:38;;;;;;;44.60;26.70;;;-0.40;99.90;;;;;;4977390;28;20189;-80
2022/12/10 09:45:06;;;;;;;44.27;25.07;;;-0.50;99.90;;;;;;4961251;28;20205;-80
2022/12/10 09:48:02;;;;;;;35.17;19.30;;;-0.50;99.90;;;;;;4979774;28;20192;-79
2022/12/10 09:50:48;;;;;;;35.87;20.00;;;-0.60;99.90;;;;;;4999647;28;20259;-80
2022/12/10 09:53:18;;;;;;;34.13;17.67;;;-0.80;99.90;;;;;;4982080;28;20593;-80
2022/12/10 09:55:46;;;;;;;36.53;19.20;;;-0.70;99.90;;;;;;5000597;28;21227;-79
2022/12/10 09:58:18;;;;;;;38.20;19.47;;;-0.80;99.90;;;;;;4982847;28;20184;-81
2022/12/10 10:00:47;;;;;;;35.23;19.47;;;-0.80;99.90;;;;;;4983917;28;20180;-79
2022/12/10 10:03:14;;;;;;;34.87;18.03;;;-0.90;99.90;;;;;;4983059;28;20193;-78
2022/12/10 10:05:48;;;;;;;37.97;18.83;;;-0.80;99.90;;;;;;4982019;28;20247;-81
2022/12/10 10:08:14;;;;;;;31.63;17.03;;;-0.80;99.90;;;;;;4989735;28;20193;-79
2022/12/10 10:10:41;;;;;;;33.23;17.60;;;-0.90;99.90;;;;;;4978685;28;20188;-78
2022/12/10 10:13:07;;;;;;;34.83;18.27;;;-0.90;99.90;;;;;;4982349;28;20295;-77
2022/12/10 10:15:35;;;;;;;38.43;22.97;;;-0.90;99.90;;;;;;4981320;28;20284;-78
2022/12/10 10:18:20;;;;;;;32.63;18.27;;;-0.80;99.90;;;;;;4982782;28;20223;-80
2022/12/10 10:20:46;;;;;;;31.30;16.30;;;-0.80;99.90;;;;;;4981062;28;20203;-79
2022/12/10 10:23:14;;;;;;;32.53;17.60;;;-0.80;99.90;;;;;;4980439;28;20205;-79
2022/12/10 10:25:41;;;;;;;37.10;20.67;;;-0.80;99.90;;;;;;4998441;28;20200;-78
2022/12/10 10:28:13;;;;;;;31.97;17.83;;;-0.80;99.90;;;;;;4983715;28;20248;-78
2022/12/10 10:30:42;;;;;;;43.73;26.57;;;-1.00;99.90;;;;;;4981701;28;20248;-80
2022/12/10 10:33:09;;;;;;;54.43;33.33;;;-1.00;99.90;;;;;;4984253;28;20256;-79
2022/12/10 10:35:44;;;;;;;44.87;27.80;;;-0.90;99.90;;;;;;4982128;28;20200;-79
2022/12/10 10:38:23;;;;;;;50.87;35.23;;;-0.70;99.90;;;;;;4981072;28;20188;-77
2022/12/10 10:40:52;;;;;;;31.20;15.10;;;-0.70;99.90;;;;;;4984733;28;20175;-78
2022/12/10 10:43:32;;;;;;;30.63;15.73;;;-0.60;99.90;;;;;;4984531;28;20231;-79
2022/12/10 10:46:11;;;;;;;29.07;16.07;;;-0.60;99.90;;;;;;4983191;28;20191;-80
2022/12/10 10:48:36;;;;;;;34.20;17.87;;;-0.50;99.90;;;;;;4983393;28;20184;-79
2022/12/10 10:51:15;;;;;;;193.47;127.23;;;-0.60;99.90;;;;;;4979104;28;20778;-79
2022/12/10 10:53:51;;;;;;;34.03;16.60;;;-0.70;99.90;;;;;;4988899;28;20239;-79
2022/12/10 10:56:26;;;;;;;28.60;15.67;;;-0.80;99.90;;;;;;4990757;28;20215;-77
2022/12/10 10:58:59;;;;;;;31.50;15.67;;;-0.80;99.90;;;;;;4990304;28;20250;-80
2022/12/10 11:01:42;;;;;;;30.87;15.53;;;-0.60;99.90;;;;;;4981827;28;20185;-79
2022/12/10 11:04:08;;;;;;;32.27;16.07;;;-0.50;99.90;;;;;;4982903;28;20243;-80
2022/12/10 11:06:34;;;;;;;29.83;15.03;;;-0.40;99.90;;;;;;4980259;28;20223;-78
2022/12/10 11:08:59;;;;;;;27.13;14.67;;;-0.50;99.90;;;;;;4982874;28;20196;-79
2022/12/10 11:11:40;;;;;;;29.50;15.20;;;-0.90;99.90;;;;;;4980389;28;20193;-79
2022/12/10 11:14:38;;;;;;;32.00;16.07;;;-0.90;99.90;;;;;;4979101;28;20266;-78
2022/12/10 11:17:21;;;;;;;31.50;15.80;;;-0.80;99.90;;;;;;4979130;28;20234;-78
2022/12/10 11:19:55;;;;;;;27.50;14.57;;;-0.80;99.90;;;;;;4980049;28;20223;-79
2022/12/10 11:22:30;;;;;;;29.17;15.47;;;-0.80;99.90;;;;;;4979066;28;20209;-77
2022/12/10 11:24:56;;;;;;;28.00;14.77;;;-0.90;99.90;;;;;;4980704;28;20180;-80
2022/12/10 11:27:31;;;;;;;28.27;14.80;;;-0.80;99.90;;;;;;4986310;28;20189;-79
2022/12/10 11:30:12;;;;;;;29.23;14.10;;;-0.80;99.90;;;;;;4985102;28;20244;-82
2022/12/10 11:33:09;;;;;;;30.00;14.63;;;-0.80;99.90;;;;;;4978026;28;20209;-81
2022/12/10 11:35:47;;;;;;;28.10;14.30;;;-0.80;99.90;;;;;;4977922;28;20247;-79
2022/12/10 11:38:34;;;;;;;29.73;14.37;;;-0.80;99.90;;;;;;4984137;28;20260;-79
2022/12/10 11:41:17;;;;;;;29.70;15.37;;;-0.80;99.90;;;;;;4970960;28;20268;-79
2022/12/10 11:44:01;;;;;;;28.20;13.80;;;-0.80;99.90;;;;;;4992077;28;20211;-79
2022/12/10 11:46:29;;;;;;;28.67;15.17;;;-0.90;99.90;;;;;;4978031;28;20180;-78
2022/12/10 11:49:00;;;;;;;25.90;13.87;;;-0.90;99.90;;;;;;4978382;28;20192;-79
2022/12/10 11:51:34;;;;;;;27.87;15.13;;;-0.90;99.90;;;;;;4976005;28;20184;-80
2022/12/10 11:54:18;;;;;;;28.47;14.37;;;-0.90;99.90;;;;;;4975561;28;20207;-79
2022/12/10 11:57:05;;;;;;;27.53;14.87;;;-0.80;99.90;;;;;;4977190;28;20196;-78
2022/12/10 11:59:40;;;;;;;26.23;13.87;;;-0.90;99.90;;;;;;4976254;28;20184;-77
2022/12/10 12:02:33;;;;;;;29.50;14.67;;;-0.90;99.90;;;;;;4973575;28;20195;-80
2022/12/10 12:05:30;;;;;;;26.93;14.50;;;-0.80;99.90;;;;;;4992201;28;20177;-78
2022/12/10 12:08:29;;;;;;;26.27;14.23;;;-0.80;99.90;;;;;;4975735;28;20184;-80
2022/12/10 12:11:16;;;;;;;28.67;14.60;;;-0.80;99.90;;;;;;4992257;28;20300;-78
2022/12/10 12:13:59;;;;;;;28.10;13.57;;;-0.80;99.90;;;;;;4969161;28;20707;-78
2022/12/10 12:17:02;;;;;;;25.43;14.00;;;-0.80;99.90;;;;;;4965124;28;20208;-80
2022/12/10 12:19:50;;;;;;;26.00;13.53;;;-0.90;99.90;;;;;;4990186;28;20176;-78
2022/12/10 12:22:22;;;;;;;23.17;12.67;;;-0.90;99.90;;;;;;4968147;28;20181;-78
2022/12/10 12:24:52;;;;;;;25.30;13.30;;;-1.00;99.90;;;;;;4973888;28;20545;-79
2022/12/10 12:27:30;;;;;;;23.87;12.87;;;-1.00;99.90;;;;;;4967982;28;20196;-78
2022/12/10 12:30:25;;;;;;;21.07;12.17;;;-0.90;99.90;;;;;;4978027;28;20187;-78
2022/12/10 12:33:05;;;;;;;23.77;13.23;;;-0.90;99.90;;;;;;4957475;28;20290;-80
2022/12/10 12:36:08;;;;;;;25.47;13.80;;;-1.00;99.90;;;;;;4977452;28;20870;-77
2022/12/10 12:38:55;;;;;;;22.57;13.37;;;-1.00;99.90;;;;;;4968923;28;20412;-79
2022/12/10 12:41:42;;;;;;;24.90;14.00;;;-0.90;99.90;;;;;;4983150;28;20215;-79
2022/12/10 12:44:45;;;;;;;22.20;12.13;;;-0.80;99.90;;;;;;4975204;28;20203;-80
2022/12/10 12:47:29;;;;;;;25.27;15.10;;;-0.90;99.90;;;;;;4972952;28;20215;-80
2022/12/10 12:49:56;;;;;;;25.37;14.13;;;-0.90;99.90;;;;;;4975436;28;20220;-79
2022/12/10 12:52:43;;;;;;;29.53;15.37;;;-0.80;99.90;;;;;;4978453;28;20282;-79
2022/12/10 12:55:32;;;;;;;39.47;22.57;;;-0.80;99.90;;;;;;4976040;28;20216;-79
2022/12/10 12:58:04;;;;;;;42.63;27.10;;;-0.70;99.90;;;;;;4976503;28;20208;-78
2022/12/10 13:00:35;;;;;;;36.10;22.73;;;-0.90;99.90;;;;;;4976414;28;20701;-78
2022/12/10 13:03:34;;;;;;;50.60;29.73;;;-0.90;99.90;;;;;;4974335;28;20205;-79